Estación de Olivar Alto

Ultimos registro cada 15 minutos 78
Estación Fecha / Hora Temperatura Humedad Lluvia Velocidad Dirección Radiación Presion
78 Olivar Alto 09-05-2026 19:15 8,4 82 0 0 214 0 1017,1
77 Olivar Alto 09-05-2026 19:00 9,1 81 0 0 214 0 1017
76 Olivar Alto 09-05-2026 18:45 9,8 79 0 0 214 0 1016,9
75 Olivar Alto 09-05-2026 18:30 11,1 73 0 0 214 0 1017
74 Olivar Alto 09-05-2026 18:15 12,8 68 0 0 214 0 1016,6
73 Olivar Alto 09-05-2026 18:00 14,2 61 0 0 214 0 1016,7
72 Olivar Alto 09-05-2026 17:45 15,7 56 0 0 214 7 1016,4
71 Olivar Alto 09-05-2026 17:30 17 52 0 0 214 12 1016,8
70 Olivar Alto 09-05-2026 17:15 17,8 50 0 0 217 18 1016,4
69 Olivar Alto 09-05-2026 17:00 18,3 50 0 0,4 214 21 1016,1
68 Olivar Alto 09-05-2026 16:45 18,9 49 0 0 213 23 1016
67 Olivar Alto 09-05-2026 16:30 19,3 50 0 0,4 190 26 1016,1
66 Olivar Alto 09-05-2026 16:15 19,7 53 0 0 254 49 1016,2
65 Olivar Alto 09-05-2026 16:00 19,9 49 0 0,4 221 221 1016,4
64 Olivar Alto 09-05-2026 15:45 20,2 48 0 0,9 208 308 1016,3
63 Olivar Alto 09-05-2026 15:30 20,3 48 0 0,9 174 343 1016,4
62 Olivar Alto 09-05-2026 15:15 20,2 50 0 0,9 164 378 1016,5
61 Olivar Alto 09-05-2026 15:00 19,8 52 0 0 225 411 1016,6
60 Olivar Alto 09-05-2026 14:45 19,8 55 0 0 205 443 1016,8
59 Olivar Alto 09-05-2026 14:30 19,6 56 0 0,9 146 466 1016,8
58 Olivar Alto 09-05-2026 14:15 19,7 55 0 0,9 286 489 1017
57 Olivar Alto 09-05-2026 14:00 19,9 55 0 0 256 512 1017
56 Olivar Alto 09-05-2026 13:45 19,4 56 0 0,9 260 533 1017
55 Olivar Alto 09-05-2026 13:30 19,1 56 0 0,4 225 548 1017,1
54 Olivar Alto 09-05-2026 13:15 19 55 0 1,8 241 559 1017,1
53 Olivar Alto 09-05-2026 13:00 18,5 58 0 0,4 240 566 1017,4
52 Olivar Alto 09-05-2026 12:45 17,5 56 0 0 232 570 1017,6
51 Olivar Alto 09-05-2026 12:30 16,9 58 0 0 234 570 1017,7
50 Olivar Alto 09-05-2026 12:15 16,3 62 0 0,4 353 570 1017,9
49 Olivar Alto 09-05-2026 12:00 15,7 67 0 0 333 563 1018,1
48 Olivar Alto 09-05-2026 11:45 15 69 0 0 15 552 1017,8
47 Olivar Alto 09-05-2026 11:30 14,2 71 0 0,4 19 536 1017,9
46 Olivar Alto 09-05-2026 11:15 13,3 73 0 0,9 11 519 1018
45 Olivar Alto 09-05-2026 11:00 12,6 78 0 0,9 53 501 1018,2
44 Olivar Alto 09-05-2026 10:45 11,9 80 0 0 327 473 1018,5
43 Olivar Alto 09-05-2026 10:30 11,6 81 0 0,4 318 448 1018,6
42 Olivar Alto 09-05-2026 10:15 11,2 84 0 0,4 41 417 1018,7
41 Olivar Alto 09-05-2026 10:00 10,5 85 0 0 344 387 1018,7
40 Olivar Alto 09-05-2026 09:45 9,8 87 0 0 359 202 1018,9
39 Olivar Alto 09-05-2026 09:30 9,7 89 0 0 234 343 1018,8
38 Olivar Alto 09-05-2026 09:15 9,2 90 0 0 225 199 1018,9
37 Olivar Alto 09-05-2026 09:00 8,8 91 0 0 205 185 1019
36 Olivar Alto 09-05-2026 08:45 8,6 91 0 0 229 74 1018,9
35 Olivar Alto 09-05-2026 08:30 8,4 91 0 0 230 53 1019,1
34 Olivar Alto 09-05-2026 08:15 8,4 91 0 0 231 40 1019
33 Olivar Alto 09-05-2026 08:00 8,4 92 0 0 232 21 1019
32 Olivar Alto 09-05-2026 07:45 8,3 92 0 0 234 11 1019
31 Olivar Alto 09-05-2026 07:30 8,4 92 0 0 228 0 1018,9
30 Olivar Alto 09-05-2026 07:15 8,5 93 0 0 229 0 1019,1
29 Olivar Alto 09-05-2026 07:00 8,5 92 0 0 229 0 1019
28 Olivar Alto 09-05-2026 06:45 8,6 93 0 0 230 0 1019,1
27 Olivar Alto 09-05-2026 06:30 8,7 93 0 0 230 0 1019,2
26 Olivar Alto 09-05-2026 06:15 8,6 93 0 0 230 0 1019,4
25 Olivar Alto 09-05-2026 06:00 8,6 93 0 0 230 0 1019,2
24 Olivar Alto 09-05-2026 05:45 8,7 93 0 0 231 0 1019,1
23 Olivar Alto 09-05-2026 05:30 8,7 94 0 0 232 0 1019
22 Olivar Alto 09-05-2026 05:15 8,8 94 0 0 233 0 1018,9
21 Olivar Alto 09-05-2026 05:00 8,8 94 0 0 235 0 1018,9
20 Olivar Alto 09-05-2026 04:45 8,9 95 0 0 235 0 1019
19 Olivar Alto 09-05-2026 04:30 8,9 95 0 0 235 0 1019,1
18 Olivar Alto 09-05-2026 04:15 8,9 95 0 0,4 168 0 1019,3
17 Olivar Alto 09-05-2026 04:00 8,9 95 0 0 141 0 1019,4
16 Olivar Alto 09-05-2026 03:45 8,9 95 0 0 142 0 1019,6
15 Olivar Alto 09-05-2026 03:30 8,9 95 0 0 142 0 1019,6
14 Olivar Alto 09-05-2026 03:15 8,9 95 0 0 142 0 1019,7
13 Olivar Alto 09-05-2026 03:00 8,9 95 0 0 142 0 1019,7
12 Olivar Alto 09-05-2026 02:45 8,9 95 0 0 141 0 1019,8
11 Olivar Alto 09-05-2026 02:30 8,9 96 0 0,4 233 0 1020,2
10 Olivar Alto 09-05-2026 02:15 8,8 96 0 0 213 0 1020,1
9 Olivar Alto 09-05-2026 02:00 8,7 96 0 0,4 226 0 1020,3
8 Olivar Alto 09-05-2026 01:45 8,4 96 0 0,4 216 0 1019,9
7 Olivar Alto 09-05-2026 01:30 8,3 96 0 0 259 0 1019,9
6 Olivar Alto 09-05-2026 01:15 7,8 96 0 0 261 0 1019,6
5 Olivar Alto 09-05-2026 01:00 7,6 95 0 0 144 0 1019,6
4 Olivar Alto 09-05-2026 00:45 7,8 94 0 0 144 0 1019,7
3 Olivar Alto 09-05-2026 00:30 8,2 94 0 0 145 0 1019,7
2 Olivar Alto 09-05-2026 00:15 8,6 94 0 0 144 0 1020
1 Olivar Alto 09-05-2026 00:00 9 94 0 0 144 0 1020,2